createdAt,value
2023-02-11T00:01:26.719Z,10.37
2023-02-11T00:03:55.310Z,10.33
2023-02-11T00:06:24.086Z,11.93
2023-02-11T00:08:52.064Z,11.67
2023-02-11T00:11:25.470Z,12.10
2023-02-11T00:13:53.868Z,12.23
2023-02-11T00:16:22.880Z,12.60
2023-02-11T00:18:54.124Z,11.27
2023-02-11T00:21:25.470Z,13.30
2023-02-11T00:23:54.875Z,13.80
2023-02-11T00:26:27.902Z,11.57
2023-02-11T00:28:56.980Z,12.10
2023-02-11T00:31:26.819Z,13.17
2023-02-11T00:33:55.921Z,14.90
2023-02-11T00:36:27.562Z,13.60
2023-02-11T00:38:56.992Z,16.63
2023-02-11T00:41:26.972Z,15.40
2023-02-11T00:43:55.608Z,15.83
2023-02-11T00:46:23.795Z,15.20
2023-02-11T00:48:54.987Z,14.77
2023-02-11T00:51:23.314Z,16.60
2023-02-11T00:53:51.651Z,16.47
2023-02-11T00:56:19.773Z,15.83
2023-02-11T00:58:49.284Z,13.77
2023-02-11T01:01:17.454Z,15.63
2023-02-11T01:03:45.675Z,13.60
2023-02-11T01:06:13.982Z,15.27
2023-02-11T01:08:43.824Z,14.23
2023-02-11T01:11:16.536Z,16.47
2023-02-11T01:13:45.104Z,16.57
2023-02-11T01:16:15.786Z,16.00
2023-02-11T01:18:44.595Z,18.40
2023-02-11T01:21:13.063Z,16.87
2023-02-11T01:23:41.147Z,17.37
2023-02-11T01:26:09.130Z,16.17
2023-02-11T01:28:38.017Z,16.10
2023-02-11T01:31:06.379Z,15.73
2023-02-11T01:33:35.891Z,18.67
2023-02-11T01:36:09.474Z,15.20
2023-02-11T01:38:44.206Z,16.73
2023-02-11T01:41:15.581Z,18.10
2023-02-11T01:43:47.402Z,17.63
2023-02-11T01:46:38.957Z,15.43
2023-02-11T01:49:14.612Z,17.07
2023-02-11T01:51:47.895Z,16.97
2023-02-11T01:54:38.936Z,15.53
2023-02-11T01:57:25.925Z,16.60
2023-02-11T02:00:12.901Z,17.87
2023-02-11T02:02:49.065Z,19.00
2023-02-11T02:05:27.266Z,16.93
2023-02-11T02:08:03.930Z,17.50
2023-02-11T02:10:35.572Z,15.67
2023-02-11T02:13:03.674Z,17.20
2023-02-11T02:15:35.043Z,17.97
2023-02-11T02:18:14.826Z,16.33
2023-02-11T02:21:49.405Z,14.80
2023-02-11T02:24:37.216Z,15.53
2023-02-11T02:27:35.471Z,15.70
2023-02-11T02:30:30.939Z,14.77
2023-02-11T02:33:22.765Z,17.10
2023-02-11T02:36:08.882Z,15.30
2023-02-11T02:38:43.847Z,15.53
2023-02-11T02:41:15.576Z,16.83
2023-02-11T02:43:46.537Z,17.03
2023-02-11T02:46:19.624Z,16.00
2023-02-11T02:48:50.606Z,16.77
2023-02-11T02:51:44.660Z,18.60
2023-02-11T02:54:39.810Z,16.13
2023-02-11T02:57:21.374Z,15.23
2023-02-11T03:00:05.274Z,14.43
2023-02-11T03:02:41.399Z,16.17
2023-02-11T03:05:18.696Z,15.80
2023-02-11T03:07:55.645Z,15.30
2023-02-11T03:10:29.121Z,14.63
2023-02-11T03:12:58.629Z,14.27
2023-02-11T03:15:31.591Z,15.60
2023-02-11T03:18:01.664Z,14.57
2023-02-11T03:20:34.389Z,15.30
2023-02-11T03:23:08.841Z,15.03
2023-02-11T03:25:42.689Z,14.10
2023-02-11T03:28:18.153Z,15.20
2023-02-11T03:30:53.471Z,15.87
2023-02-11T03:33:26.470Z,14.70
2023-02-11T03:36:00.638Z,15.70
2023-02-11T03:38:34.841Z,16.53
2023-02-11T03:41:06.116Z,14.20
2023-02-11T03:43:39.026Z,13.37
2023-02-11T03:46:08.407Z,15.53
2023-02-11T03:48:40.140Z,16.73
2023-02-11T03:51:12.203Z,14.80
2023-02-11T03:53:44.415Z,17.10
2023-02-11T03:56:17.446Z,16.60
2023-02-11T03:58:46.109Z,15.00
2023-02-11T04:01:14.210Z,15.87
2023-02-11T04:03:42.629Z,14.77
2023-02-11T04:06:12.120Z,14.50
2023-02-11T04:08:40.121Z,13.33
2023-02-11T04:11:08.083Z,13.57
2023-02-11T04:13:36.020Z,11.60
2023-02-11T04:16:04.109Z,14.47
2023-02-11T04:18:32.077Z,14.13
2023-02-11T04:21:00.108Z,13.20
2023-02-11T04:23:29.427Z,13.73
2023-02-11T04:25:57.427Z,14.63
2023-02-11T04:28:26.782Z,13.33
2023-02-11T04:30:54.814Z,13.90
2023-02-11T04:33:23.344Z,15.30
2023-02-11T04:35:51.596Z,15.93
2023-02-11T04:38:19.782Z,16.57
2023-02-11T04:40:49.141Z,15.33
2023-02-11T04:43:17.141Z,14.67
2023-02-11T04:45:45.227Z,15.50
2023-02-11T04:48:13.215Z,17.27
2023-02-11T04:50:41.531Z,19.60
2023-02-11T04:53:09.579Z,15.10
2023-02-11T04:55:37.548Z,14.37
2023-02-11T04:58:07.053Z,15.33
2023-02-11T05:00:35.039Z,15.10
2023-02-11T05:03:03.022Z,14.37
2023-02-11T05:05:30.993Z,15.53
2023-02-11T05:07:59.095Z,15.37
2023-02-11T05:10:27.191Z,14.93
2023-02-11T05:12:56.124Z,14.60
2023-02-11T05:15:25.546Z,14.93
2023-02-11T05:17:53.770Z,15.87
2023-02-11T05:20:22.409Z,15.93
2023-02-11T05:22:50.387Z,15.13
2023-02-11T05:25:18.545Z,15.20
2023-02-11T05:27:46.558Z,15.10
2023-02-11T05:30:15.140Z,16.60
2023-02-11T05:32:44.542Z,15.10
2023-02-11T05:35:12.573Z,13.60
2023-02-11T05:37:41.113Z,16.00
2023-02-11T05:40:10.220Z,16.53
2023-02-11T05:42:38.212Z,15.37
2023-02-11T05:45:08.371Z,14.10
2023-02-11T05:47:36.339Z,15.63
2023-02-11T05:50:06.440Z,15.17
2023-02-11T05:52:34.417Z,15.40
2023-02-11T05:55:02.560Z,13.60
2023-02-11T05:57:30.581Z,15.10
2023-02-11T05:59:58.600Z,14.40
2023-02-11T06:02:26.703Z,16.20
2023-02-11T06:04:54.730Z,14.63
2023-02-11T06:07:24.078Z,15.27
2023-02-11T06:09:52.047Z,15.40
2023-02-11T06:12:20.126Z,16.33
2023-02-11T06:14:48.118Z,15.70
2023-02-11T06:17:16.135Z,15.83
2023-02-11T06:19:44.426Z,14.97
2023-02-11T06:22:12.606Z,14.63
2023-02-11T06:25:00.400Z,13.80
2023-02-11T06:27:29.342Z,15.33
2023-02-11T06:29:57.496Z,15.43
2023-02-11T06:32:42.775Z,16.57
2023-02-11T06:35:12.565Z,14.90
2023-02-11T06:37:41.247Z,15.07
2023-02-11T06:40:11.485Z,15.57
2023-02-11T06:42:39.796Z,15.47
2023-02-11T06:45:10.839Z,15.10
2023-02-11T06:47:39.070Z,16.30
2023-02-11T06:50:10.132Z,15.93
2023-02-11T06:52:38.131Z,15.63
2023-02-11T06:55:06.979Z,15.07
2023-02-11T06:57:36.279Z,15.73
2023-02-11T07:00:05.822Z,15.53
2023-02-11T07:02:34.004Z,15.20
2023-02-11T07:05:02.034Z,16.23
2023-02-11T07:07:32.387Z,15.27
2023-02-11T07:10:03.010Z,14.50
2023-02-11T07:12:31.309Z,15.30
2023-02-11T07:15:00.630Z,15.60
2023-02-11T07:17:28.752Z,16.30
2023-02-11T07:19:56.737Z,14.80
2023-02-11T07:22:24.894Z,14.43
2023-02-11T07:24:52.892Z,13.67
2023-02-11T07:27:20.905Z,14.47
2023-02-11T07:29:48.949Z,13.57
2023-02-11T07:32:18.372Z,14.97
2023-02-11T07:34:47.993Z,14.30
2023-02-11T07:37:16.078Z,17.43
2023-02-11T07:39:44.110Z,14.70
2023-02-11T07:42:12.111Z,13.80
2023-02-11T07:44:40.061Z,15.80
2023-02-11T07:47:08.141Z,14.53
2023-02-11T07:49:37.462Z,13.97
2023-02-11T07:52:05.690Z,15.20
2023-02-11T07:54:33.875Z,16.13
2023-02-11T07:57:01.833Z,15.17
2023-02-11T07:59:29.810Z,16.00
2023-02-11T08:01:57.846Z,14.30
2023-02-11T08:04:25.840Z,15.50
2023-02-11T08:06:59.024Z,16.00
2023-02-11T08:09:27.870Z,14.27
2023-02-11T08:11:55.885Z,16.50
2023-02-11T08:14:25.100Z,16.10
2023-02-11T08:16:53.255Z,15.23
2023-02-11T08:19:21.395Z,15.10
2023-02-11T08:21:49.369Z,16.07
2023-02-11T08:24:18.770Z,17.10
2023-02-11T08:26:46.763Z,15.77
2023-02-11T08:29:17.996Z,15.37
2023-02-11T08:31:48.729Z,15.60
2023-02-11T08:34:18.971Z,15.47
2023-02-11T08:36:48.716Z,15.00
2023-02-11T08:39:21.361Z,17.03
2023-02-11T08:41:51.948Z,17.03
2023-02-11T08:44:21.308Z,16.50
2023-02-11T08:46:50.019Z,19.83
2023-02-11T08:49:18.808Z,15.00
2023-02-11T08:51:47.743Z,16.10
2023-02-11T08:54:16.244Z,17.83
2023-02-11T08:56:45.837Z,18.07
2023-02-11T08:59:22.086Z,16.67
2023-02-11T09:01:50.484Z,19.23
2023-02-11T09:04:18.602Z,19.03
2023-02-11T09:06:46.672Z,17.70
2023-02-11T09:09:16.550Z,19.23
2023-02-11T09:11:46.766Z,20.03
2023-02-11T09:14:20.272Z,20.67
2023-02-11T09:16:49.395Z,19.30
2023-02-11T09:19:18.058Z,23.70
2023-02-11T09:21:46.206Z,16.50
2023-02-11T09:24:14.248Z,17.43
2023-02-11T09:26:44.825Z,16.80
2023-02-11T09:29:13.234Z,20.57
2023-02-11T09:31:41.575Z,18.73
2023-02-11T09:34:11.280Z,23.13
2023-02-11T09:36:41.508Z,18.50
2023-02-11T09:39:14.571Z,18.07
2023-02-11T09:42:30.373Z,19.27
2023-02-11T09:45:00.726Z,19.63
2023-02-11T09:47:33.434Z,61.37
2023-02-11T09:50:06.038Z,31.97
2023-02-11T09:52:40.721Z,21.70
2023-02-11T09:55:20.678Z,23.50
2023-02-11T09:57:50.542Z,24.47
2023-02-11T10:00:26.149Z,38.20
2023-02-11T10:03:20.056Z,22.03
2023-02-11T10:06:05.945Z,25.37
2023-02-11T10:08:42.957Z,20.87
2023-02-11T10:11:31.260Z,25.50
2023-02-11T10:14:13.473Z,20.67
2023-02-11T10:16:59.195Z,17.03
2023-02-11T10:19:58.206Z,16.93
2023-02-11T10:22:33.041Z,14.97
2023-02-11T10:25:01.997Z,16.43
2023-02-11T10:27:34.212Z,18.73
2023-02-11T10:30:11.151Z,15.27
2023-02-11T10:32:46.822Z,17.67
2023-02-11T10:35:19.371Z,16.13
2023-02-11T10:37:47.524Z,15.37
2023-02-11T10:40:18.650Z,16.00
2023-02-11T10:42:53.626Z,16.93
2023-02-11T10:45:33.210Z,16.90
2023-02-11T10:48:01.987Z,16.90
2023-02-11T10:50:34.873Z,18.80
2023-02-11T10:53:20.999Z,14.70
2023-02-11T10:55:56.047Z,15.33
2023-02-11T10:58:27.624Z,16.53
2023-02-11T11:01:00.152Z,15.73
2023-02-11T11:03:30.728Z,15.70
2023-02-11T11:06:01.887Z,16.10
2023-02-11T11:08:41.950Z,13.80
2023-02-11T11:11:13.413Z,14.60
2023-02-11T11:13:43.367Z,13.87
2023-02-11T11:16:23.488Z,13.93
2023-02-11T11:18:55.030Z,12.17
2023-02-11T11:21:26.127Z,11.33
2023-02-11T11:23:58.699Z,14.63
2023-02-11T11:26:29.502Z,11.40
2023-02-11T11:29:02.744Z,10.63
2023-02-11T11:31:37.846Z,13.80
2023-02-11T11:34:23.789Z,11.27
2023-02-11T11:36:52.225Z,13.93
2023-02-11T11:39:25.206Z,14.70
2023-02-11T11:41:57.374Z,14.93
2023-02-11T11:44:32.789Z,13.70
2023-02-11T11:47:27.000Z,13.80
2023-02-11T11:50:26.652Z,12.80
2023-02-11T11:53:03.961Z,12.73
2023-02-11T11:55:39.140Z,10.93
2023-02-11T11:58:15.333Z,11.07
2023-02-11T12:00:54.740Z,13.17
2023-02-11T12:04:02.560Z,11.20
2023-02-11T12:06:41.050Z,8.90
2023-02-11T12:09:22.954Z,8.33
2023-02-11T12:12:26.644Z,7.57
2023-02-11T12:15:08.696Z,8.87
2023-02-11T12:17:53.370Z,8.73
2023-02-11T12:20:33.798Z,7.60
2023-02-11T12:23:20.281Z,7.77
2023-02-11T12:25:56.168Z,6.90
2023-02-11T12:28:38.470Z,7.70
2023-02-11T12:31:37.099Z,5.93
2023-02-11T12:34:40.649Z,6.73
2023-02-11T12:37:25.885Z,6.17
2023-02-11T12:40:02.541Z,6.53
2023-02-11T12:43:11.066Z,7.30
2023-02-11T12:46:23.765Z,5.67
2023-02-11T12:49:20.145Z,7.17
2023-02-11T12:52:04.076Z,6.20
2023-02-11T12:54:39.820Z,6.80
2023-02-11T12:57:14.990Z,6.97
2023-02-11T12:59:55.324Z,5.80
2023-02-11T13:02:36.522Z,5.97
2023-02-11T13:05:19.830Z,6.00
2023-02-11T13:07:48.912Z,6.10
2023-02-11T13:10:30.049Z,6.47
2023-02-11T13:13:18.349Z,6.30
2023-02-11T13:15:52.432Z,4.57
2023-02-11T13:18:45.914Z,6.23
2023-02-11T13:21:34.875Z,5.90
2023-02-11T13:24:18.748Z,5.97
2023-02-11T13:26:59.069Z,5.40
2023-02-11T13:29:58.852Z,5.83
2023-02-11T13:32:26.856Z,6.73
2023-02-11T13:34:58.837Z,6.73
2023-02-11T13:37:31.779Z,6.43
2023-02-11T13:40:02.407Z,6.40
2023-02-11T13:42:34.285Z,6.33
2023-02-11T13:45:02.910Z,5.30
2023-02-11T13:47:34.942Z,6.00
2023-02-11T13:50:08.253Z,6.10
2023-02-11T13:52:38.686Z,5.80
2023-02-11T13:55:16.366Z,5.50
2023-02-11T13:57:45.701Z,5.73
2023-02-11T14:00:51.246Z,7.83
2023-02-11T14:03:51.735Z,6.17
2023-02-11T14:07:02.055Z,5.30
2023-02-11T14:09:42.639Z,6.20
2023-02-11T14:12:36.694Z,4.83
2023-02-11T14:15:28.674Z,6.73
2023-02-11T14:17:56.667Z,5.20
2023-02-11T14:20:39.777Z,6.03
2023-02-11T14:23:08.118Z,4.87
2023-02-11T14:25:37.096Z,7.10
2023-02-11T14:28:18.811Z,5.60
2023-02-11T14:30:59.643Z,5.30
2023-02-11T14:33:54.404Z,6.07
2023-02-11T14:36:54.592Z,6.53
2023-02-11T14:39:38.619Z,33.73
2023-02-11T14:42:07.109Z,8.60
2023-02-11T14:44:36.172Z,9.30
2023-02-11T14:47:06.518Z,7.83
2023-02-11T14:49:37.459Z,10.20
2023-02-11T14:52:17.501Z,5.90
2023-02-11T14:54:47.073Z,6.93
2023-02-11T14:57:18.928Z,7.10
2023-02-11T15:00:02.226Z,7.40
2023-02-11T15:02:35.959Z,5.87
2023-02-11T15:05:20.937Z,5.97
2023-02-11T15:07:51.687Z,6.00
2023-02-11T15:10:30.191Z,11.60
2023-02-11T15:13:00.798Z,6.67
2023-02-11T15:15:30.647Z,9.17
2023-02-11T15:18:04.172Z,6.93
2023-02-11T15:20:35.757Z,5.40
2023-02-11T15:23:08.214Z,6.67
2023-02-11T15:25:45.517Z,6.03
2023-02-11T15:28:24.662Z,5.40
2023-02-11T15:31:01.919Z,4.43
2023-02-11T15:33:33.008Z,4.60
2023-02-11T15:36:02.095Z,4.67
2023-02-11T15:38:31.093Z,3.77
2023-02-11T15:41:08.604Z,5.23
2023-02-11T15:43:47.235Z,4.30
2023-02-11T15:46:18.544Z,3.90
2023-02-11T15:48:50.503Z,3.97
2023-02-11T15:51:23.336Z,4.07
2023-02-11T15:53:56.755Z,4.60
2023-02-11T15:56:29.754Z,4.50
2023-02-11T15:59:00.939Z,3.30
2023-02-11T16:01:34.035Z,4.03
2023-02-11T16:04:05.312Z,3.63
2023-02-11T16:06:40.142Z,3.97
2023-02-11T16:09:33.460Z,3.67
2023-02-11T16:12:04.586Z,3.03
2023-02-11T16:14:39.052Z,3.83
2023-02-11T16:17:10.715Z,3.70
2023-02-11T16:19:46.375Z,3.43
2023-02-11T16:22:21.579Z,3.00
2023-02-11T16:24:52.430Z,3.73
2023-02-11T16:27:24.526Z,3.40
2023-02-11T16:29:53.307Z,3.40
2023-02-11T16:32:23.978Z,4.13
2023-02-11T16:34:55.046Z,4.00
2023-02-11T16:37:24.084Z,2.97
2023-02-11T16:39:54.850Z,2.90
2023-02-11T16:42:23.305Z,3.90
2023-02-11T16:44:51.374Z,2.80
2023-02-11T16:47:24.276Z,2.40
2023-02-11T16:49:54.264Z,3.23
2023-02-11T16:52:23.033Z,3.50
2023-02-11T16:54:51.530Z,3.40
2023-02-11T16:57:21.957Z,3.23
2023-02-11T16:59:50.233Z,3.50
2023-02-11T17:02:24.167Z,3.97
2023-02-11T17:04:55.399Z,2.90
2023-02-11T17:07:23.961Z,3.60
2023-02-11T17:09:52.616Z,3.97
2023-02-11T17:12:20.892Z,3.40
2023-02-11T17:14:49.070Z,3.40
2023-02-11T17:17:17.484Z,3.30
2023-02-11T17:19:47.807Z,3.80
2023-02-11T17:22:17.217Z,3.50
2023-02-11T17:24:45.363Z,2.50
2023-02-11T17:27:13.906Z,4.00
2023-02-11T17:29:42.042Z,3.00
2023-02-11T17:32:10.173Z,3.20
2023-02-11T17:34:38.356Z,3.80
2023-02-11T17:37:09.135Z,3.60
2023-02-11T17:39:40.971Z,4.37
2023-02-11T17:42:09.525Z,4.00
2023-02-11T17:44:38.758Z,2.77
2023-02-11T17:47:07.844Z,3.00
2023-02-11T17:49:36.216Z,3.40
2023-02-11T17:52:04.573Z,2.90
2023-02-11T17:54:32.745Z,2.93
2023-02-11T17:57:02.140Z,3.77
2023-02-11T17:59:35.226Z,2.90
2023-02-11T18:02:04.859Z,2.90
2023-02-11T18:04:33.371Z,3.43
2023-02-11T18:07:01.507Z,3.07
2023-02-11T18:09:29.887Z,3.63
2023-02-11T18:12:00.620Z,3.87
2023-02-11T18:14:30.152Z,3.47
2023-02-11T18:16:58.248Z,3.03
2023-02-11T18:19:30.395Z,4.80
2023-02-11T18:22:04.349Z,3.40
2023-02-11T18:24:33.257Z,3.60
2023-02-11T18:27:01.510Z,3.70
2023-02-11T18:29:31.538Z,3.60
2023-02-11T18:32:00.016Z,4.33
2023-02-11T18:34:29.628Z,4.03
2023-02-11T18:36:58.639Z,4.43
2023-02-11T18:39:26.746Z,4.13
2023-02-11T18:41:56.805Z,4.80
2023-02-11T18:44:25.079Z,3.97
2023-02-11T18:46:55.103Z,4.00
2023-02-11T18:49:23.159Z,4.53
2023-02-11T18:51:51.229Z,3.30
2023-02-11T18:54:19.466Z,4.33
2023-02-11T18:56:47.527Z,4.17
2023-02-11T18:59:15.571Z,4.40
2023-02-11T19:01:46.779Z,4.10
2023-02-11T19:04:19.837Z,3.40
2023-02-11T19:06:50.806Z,4.47
2023-02-11T19:09:20.950Z,3.67
2023-02-11T19:11:49.788Z,3.90
2023-02-11T19:14:23.748Z,4.50
2023-02-11T19:16:53.852Z,4.63
2023-02-11T19:19:24.714Z,5.20
2023-02-11T19:21:53.437Z,5.10
2023-02-11T19:24:23.414Z,10.37
2023-02-11T19:26:53.699Z,12.93
2023-02-11T19:29:21.940Z,7.55
2023-02-11T19:31:50.275Z,26.93
2023-02-11T19:34:21.534Z,17.97
2023-02-11T19:36:52.082Z,36.07
2023-02-11T19:39:20.076Z,15.67
2023-02-11T19:41:48.334Z,7.53
2023-02-11T19:44:16.656Z,8.27
2023-02-11T19:46:45.944Z,6.30
2023-02-11T19:49:16.796Z,7.40
2023-02-11T19:51:45.026Z,12.40
2023-02-11T19:54:14.631Z,12.73
2023-02-11T19:56:42.908Z,19.70
2023-02-11T19:59:11.279Z,27.23
2023-02-11T20:01:39.651Z,14.80
2023-02-11T20:04:08.147Z,14.37
2023-02-11T20:06:37.201Z,10.90
2023-02-11T20:09:10.913Z,9.20
2023-02-11T20:11:41.499Z,11.03
2023-02-11T20:14:10.786Z,7.63
2023-02-11T20:16:48.203Z,5.30
2023-02-11T20:19:18.916Z,5.33
2023-02-11T20:21:48.682Z,6.30
2023-02-11T20:24:17.176Z,6.20
2023-02-11T20:26:49.297Z,6.53
2023-02-11T20:29:18.461Z,6.47
2023-02-11T20:31:47.006Z,6.27
2023-02-11T20:34:17.473Z,5.50
2023-02-11T20:36:51.556Z,6.13
2023-02-11T20:39:22.646Z,6.10
2023-02-11T20:41:56.507Z,5.30
2023-02-11T20:44:25.097Z,6.70
2023-02-11T20:46:54.079Z,6.70
2023-02-11T20:49:24.795Z,6.40
2023-02-11T20:51:53.504Z,7.03
2023-02-11T20:54:23.397Z,7.47
2023-02-11T20:56:55.271Z,7.90
2023-02-11T20:59:23.717Z,7.73
2023-02-11T21:01:55.266Z,7.53
2023-02-11T21:04:27.715Z,9.90
2023-02-11T21:06:59.995Z,6.27
2023-02-11T21:09:33.913Z,7.10
2023-02-11T21:12:07.741Z,7.10
2023-02-11T21:14:35.953Z,8.40
2023-02-11T21:17:04.230Z,8.27
2023-02-11T21:19:32.272Z,6.83
2023-02-11T21:22:01.755Z,7.73
2023-02-11T21:24:30.922Z,7.80
2023-02-11T21:26:59.208Z,7.60
2023-02-11T21:29:28.544Z,8.30
2023-02-11T21:31:56.706Z,7.23
2023-02-11T21:34:25.777Z,7.97
2023-02-11T21:36:54.252Z,8.27
2023-02-11T21:39:22.283Z,7.13
2023-02-11T21:41:51.498Z,7.23
2023-02-11T21:44:20.054Z,9.43
2023-02-11T21:46:50.469Z,7.70
2023-02-11T21:49:19.660Z,8.43
2023-02-11T21:51:47.659Z,7.47
2023-02-11T21:54:15.863Z,6.93
2023-02-11T21:56:43.825Z,7.83
2023-02-11T21:59:14.136Z,7.67
2023-02-11T22:01:42.382Z,8.10
2023-02-11T22:04:12.362Z,10.07
2023-02-11T22:06:40.555Z,9.40
2023-02-11T22:09:10.987Z,8.80
2023-02-11T22:11:40.833Z,8.60
2023-02-11T22:14:09.111Z,10.20
2023-02-11T22:16:43.225Z,7.90
2023-02-11T22:19:15.750Z,9.80
2023-02-11T22:21:44.422Z,9.33
2023-02-11T22:24:12.715Z,9.47
2023-02-11T22:26:40.912Z,8.93
2023-02-11T22:29:09.335Z,9.07
2023-02-11T22:31:37.605Z,9.97
2023-02-11T22:34:06.836Z,9.83
2023-02-11T22:36:39.033Z,10.63
2023-02-11T22:39:09.591Z,9.93
2023-02-11T22:41:39.399Z,8.90
2023-02-11T22:44:07.436Z,9.80
2023-02-11T22:46:35.905Z,9.97
2023-02-11T22:49:04.309Z,9.80
2023-02-11T22:51:33.107Z,10.57
2023-02-11T22:54:06.789Z,9.40
2023-02-11T22:56:36.105Z,9.47
2023-02-11T22:59:06.764Z,9.03
2023-02-11T23:01:35.735Z,9.20
2023-02-11T23:04:06.884Z,9.93
2023-02-11T23:06:35.291Z,11.43
2023-02-11T23:09:07.090Z,9.60
2023-02-11T23:11:35.236Z,10.03
2023-02-11T23:14:04.017Z,10.80
2023-02-11T23:16:34.749Z,7.90
2023-02-11T23:19:06.045Z,9.70
2023-02-11T23:21:39.837Z,10.40
2023-02-11T23:24:12.872Z,10.40
2023-02-11T23:26:42.438Z,10.50
2023-02-11T23:29:11.667Z,10.37
2023-02-11T23:31:43.790Z,10.70
2023-02-11T23:34:12.393Z,10.63
2023-02-11T23:36:42.425Z,11.53
2023-02-11T23:39:15.441Z,11.83
2023-02-11T23:41:43.736Z,11.20
2023-02-11T23:44:13.909Z,9.90
2023-02-11T23:46:41.878Z,8.33
2023-02-11T23:49:10.073Z,13.70
2023-02-11T23:51:38.051Z,15.73
2023-02-11T23:54:06.117Z,9.40
2023-02-11T23:56:36.817Z,9.17
2023-02-11T23:59:04.872Z,10.80
